Wind From: 11-12-2017 06:00 Until: 12-12-2017 06:00 warning for: Wind Level: Orange info button

Power and phone distribution networks may be disrupted for relatively long periods., Roofs and chimneys can be damaged. , Tree branches may break. , Vehicles can be deported. , Traffic may be disrupted, particularly on secondary roads in forest areas. Limit your trips. , Limit your speed in highway driving, especially if you drive a vehicle or hitch sensitive to wind. , Do not go for walks in forests or along the coast., In town, be vigilant against possible falling objects., Do not work on roofs and do not touch any electrical line fallen on the ground., Store or secure sensitive objects to wind or likely to be damaged., Always install power generators outside buildings. 


Meteo18 Weather Cam more information Meteo18 Weather Cam


Thunder radar more information blitzortung!


Rain radar more information rain snow radar


Visit our other weather sites:

Template documentation
and downloads

And another site



Weather Underground History page Text

Daily Summary for March 27, 2016 Units:  Metric    English   Both
« Previous Day
Next Day »
Daily Weekly Monthly Yearly Custom
  High: Low: Average:
Temperature: 13.7 °C 6.3 °C 9.2 °C
Dew Point: 10.7 °C 5.0 °C 6.7 °C
Humidity: 94 % 66 % 85 %
Wind Speed: 27.4 km/h 0.0 km/h 6.6 km/h
Wind Gust: 32.2 km/h - -
Wind:- - SW
Pressure: 1014.8 hPa 1005.0 hPa -
Precipitation: 5.8 mm    
Historical Graphs
 
 
Tabular Data for March 27, 2016
Time Temperature Dew Point Pressure Wind Wind Speed Wind Gust Humidity Rainfall Rate (Hourly)
00:02 10.8 °C 8.7 °C 1006.0 hPa Calm   4.8 km/h 87 % 0.0 mm
00:12 11.0 °C 8.7 °C 1005.6 hPa WSW 1.6 km/h 4.8 km/h 86 % 0.0 mm
00:17 11.0 °C 8.7 °C 1005.6 hPa Calm   3.2 km/h 86 % 0.0 mm
00:22 10.9 °C 8.8 °C 1005.6 hPa Calm   3.2 km/h 87 % 0.0 mm
00:32 11.3 °C 9.2 °C 1005.3 hPa Calm   4.8 km/h 87 % 0.0 mm
00:37 11.6 °C 9.3 °C 1005.0 hPa WNW 3.2 km/h 4.8 km/h 86 % 0.0 mm
00:42 11.8 °C 9.4 °C 1005.0 hPa Calm   4.8 km/h 85 % 0.0 mm
00:47 12.1 °C 9.5 °C 1005.0 hPa SW 3.2 km/h 4.8 km/h 84 % 0.0 mm
00:57 12.1 °C 9.5 °C 1005.0 hPa WSW 3.2 km/h 4.8 km/h 84 % 0.0 mm
01:02 12.1 °C 9.5 °C 1005.0 hPa SW 1.6 km/h 8.0 km/h 84 % 0.0 mm
01:07 12.2 °C 9.6 °C 1006.3 hPa SW 9.7 km/h 9.7 km/h 84 % 0.0 mm
01:12 13.1 °C 9.9 °C 1006.7 hPa SW 6.4 km/h 12.9 km/h 81 % 0.0 mm
01:17 13.7 °C 10.1 °C 1006.7 hPa SSE 1.6 km/h 20.9 km/h 79 % 0.0 mm
01:22 13.5 °C 10.7 °C 1006.7 hPa South 11.3 km/h 22.5 km/h 83 % 0.0 mm
01:32 11.9 °C 9.6 °C 1007.3 hPa South 1.6 km/h 22.5 km/h 86 % 0.5 mm
01:37 11.1 °C 8.8 °C 1007.3 hPa Calm   22.5 km/h 86 % 1.3 mm
01:42 10.7 °C 8.6 °C 1008.0 hPa North 4.8 km/h 22.5 km/h 87 % 1.3 mm
01:52 10.2 °C 8.6 °C 1008.7 hPa SSW 4.8 km/h 22.5 km/h 90 % 1.5 mm
01:57 9.9 °C 8.5 °C 1009.0 hPa SW 6.4 km/h 22.5 km/h 91 % 2.3 mm
03:02 9.7 °C 8.3 °C 1009.4 hPa SW 9.7 km/h 22.5 km/h 91 % 2.3 mm
03:12 9.3 °C 7.6 °C 1009.4 hPa WSW 11.3 km/h 20.9 km/h 89 % 2.5 mm
03:17 9.1 °C 7.2 °C 1009.4 hPa SW 6.4 km/h 22.5 km/h 88 % 2.8 mm
03:22 8.9 °C 7.0 °C 1009.7 hPa SW 8.0 km/h 22.5 km/h 88 % 2.8 mm
03:27 8.8 °C 7.1 °C 1009.7 hPa SSW 6.4 km/h 17.7 km/h 89 % 2.0 mm
03:32 8.8 °C 7.2 °C 1010.0 hPa NW 9.7 km/h 17.7 km/h 90 % 2.0 mm
03:37 8.7 °C 7.0 °C 1010.0 hPa SW 6.4 km/h 17.7 km/h 89 % 1.5 mm
03:42 8.6 °C 7.1 °C 1010.4 hPa WSW 3.2 km/h 14.5 km/h 90 % 1.5 mm
03:47 8.6 °C 7.1 °C 1010.4 hPa South 4.8 km/h 16.1 km/h 90 % 1.3 mm
03:52 8.4 °C 6.9 °C 1010.0 hPa SW 9.7 km/h 16.1 km/h 90 % 1.3 mm
03:57 8.3 °C 6.9 °C 1010.4 hPa SSE 3.2 km/h 14.5 km/h 91 % 0.5 mm
04:02 8.3 °C 7.1 °C 1010.7 hPa WSW 3.2 km/h 14.5 km/h 92 % 0.5 mm
04:12 7.9 °C 6.4 °C 1011.4 hPa SW 1.6 km/h 14.5 km/h 90 % 0.5 mm
04:17 7.7 °C 6.3 °C 1011.4 hPa WSW 4.8 km/h 14.5 km/h 91 % 0.5 mm
04:27 7.6 °C 6.4 °C 1011.7 hPa SSW 9.7 km/h 12.9 km/h 92 % 0.8 mm
04:32 7.6 °C 6.4 °C 1011.7 hPa SSW 11.3 km/h 12.9 km/h 92 % 0.8 mm
04:37 7.6 °C 6.5 °C 1011.7 hPa SW 9.7 km/h 12.9 km/h 93 % 1.3 mm
04:42 7.5 °C 6.3 °C 1011.7 hPa SW 3.2 km/h 24.1 km/h 92 % 1.3 mm
04:47 7.4 °C 6.0 °C 1011.7 hPa SW 1.6 km/h 24.1 km/h 91 % 1.5 mm
04:52 7.3 °C 5.8 °C 1011.7 hPa SSW 9.7 km/h 24.1 km/h 90 % 1.5 mm
05:02 7.1 °C 5.9 °C 1012.1 hPa WSW 8.0 km/h 20.9 km/h 92 % 1.8 mm
05:07 7.1 °C 5.9 °C 1012.1 hPa SSE 3.2 km/h 17.7 km/h 92 % 2.0 mm
05:12 7.1 °C 5.9 °C 1012.1 hPa SW 3.2 km/h 17.7 km/h 92 % 2.0 mm
05:17 7.0 °C 5.9 °C 1012.1 hPa West 1.6 km/h 11.3 km/h 93 % 1.8 mm
05:22 6.9 °C 5.8 °C 1012.1 hPa WSW 3.2 km/h 11.3 km/h 93 % 1.8 mm
05:27 6.9 °C 5.8 °C 1012.1 hPa SW 1.6 km/h 8.0 km/h 93 % 1.8 mm
05:32 6.8 °C 5.6 °C 1012.1 hPa SW 4.8 km/h 8.0 km/h 92 % 1.8 mm
05:42 6.7 °C 5.5 °C 1012.4 hPa SE 3.2 km/h 9.7 km/h 92 % 1.5 mm
05:47 6.7 °C 5.5 °C 1012.4 hPa SW 4.8 km/h 9.7 km/h 92 % 1.3 mm
06:02 6.7 °C 5.6 °C 1012.1 hPa SW 1.6 km/h 8.0 km/h 93 % 0.8 mm
06:12 6.7 °C 5.6 °C 1012.8 hPa WSW 1.6 km/h 8.0 km/h 93 % 0.5 mm
06:17 6.7 °C 5.8 °C 1012.4 hPa SW 1.6 km/h 9.7 km/h 94 % 0.5 mm
06:22 6.7 °C 5.8 °C 1012.8 hPa SW 1.6 km/h 9.7 km/h 94 % 0.5 mm
06:32 6.6 °C 5.7 °C 1012.8 hPa SW 3.2 km/h 9.7 km/h 94 % 0.3 mm
06:37 6.6 °C 5.7 °C 1012.8 hPa SW 1.6 km/h 9.7 km/h 94 % 0.3 mm
06:42 6.6 °C 5.7 °C 1013.1 hPa WSW 1.6 km/h 8.0 km/h 94 % 0.0 mm
06:52 6.4 °C 5.5 °C 1013.1 hPa SW 4.8 km/h 8.0 km/h 94 % 0.0 mm
06:57 6.4 °C 5.5 °C 1013.1 hPa West 4.8 km/h 9.7 km/h 94 % 0.0 mm
07:02 6.4 °C 5.5 °C 1013.1 hPa WSW 3.2 km/h 9.7 km/h 94 % 0.0 mm
07:07 6.4 °C 5.5 °C 1013.4 hPa SSE 3.2 km/h 9.7 km/h 94 % 0.0 mm
07:12 6.3 °C 5.4 °C 1013.1 hPa South 1.6 km/h 9.7 km/h 94 % 0.0 mm
07:17 6.3 °C 5.4 °C 1013.1 hPa WSW 3.2 km/h 9.7 km/h 94 % 0.0 mm
07:22 6.3 °C 5.4 °C 1013.4 hPa SW 3.2 km/h 8.0 km/h 94 % 0.0 mm
07:27 6.4 °C 5.5 °C 1013.4 hPa WSW 1.6 km/h 8.0 km/h 94 % 0.0 mm
07:32 6.4 °C 5.5 °C 1013.4 hPa WSW 3.2 km/h 8.0 km/h 94 % 0.0 mm
07:42 6.4 °C 5.5 °C 1013.8 hPa ESE 8.0 km/h 8.0 km/h 94 % 0.0 mm
07:47 6.4 °C 5.5 °C 1013.8 hPa WSW 1.6 km/h 8.0 km/h 94 % 0.0 mm
07:52 6.5 °C 5.6 °C 1013.8 hPa WSW 4.8 km/h 8.0 km/h 94 % 0.0 mm
07:57 6.5 °C 5.6 °C 1013.8 hPa WSW 6.4 km/h 8.0 km/h 94 % 0.0 mm
08:02 6.4 °C 5.5 °C 1013.8 hPa SW 3.2 km/h 12.9 km/h 94 % 0.0 mm
08:07 6.4 °C 5.5 °C 1013.8 hPa SSW 4.8 km/h 12.9 km/h 94 % 0.0 mm
08:12 6.4 °C 5.5 °C 1013.8 hPa Calm   12.9 km/h 94 % 0.0 mm
08:17 6.3 °C 5.4 °C 1014.1 hPa SW 3.2 km/h 12.9 km/h 94 % 0.0 mm
08:22 6.4 °C 5.5 °C 1014.1 hPa SW 3.2 km/h 8.0 km/h 94 % 0.0 mm
08:27 6.4 °C 5.5 °C 1014.4 hPa SW 3.2 km/h 8.0 km/h 94 % 0.0 mm
08:32 6.4 °C 5.5 °C 1014.1 hPa SW 3.2 km/h 6.4 km/h 94 % 0.0 mm
08:37 6.6 °C 5.7 °C 1014.1 hPa SW 4.8 km/h 6.4 km/h 94 % 0.0 mm
08:42 6.7 °C 5.6 °C 1014.1 hPa SW 6.4 km/h 6.4 km/h 93 % 0.0 mm
08:47 6.8 °C 5.7 °C 1014.4 hPa South 4.8 km/h 6.4 km/h 93 % 0.0 mm
08:52 6.9 °C 5.7 °C 1014.4 hPa West 1.6 km/h 12.9 km/h 92 % 0.0 mm
08:57 6.9 °C 5.7 °C 1014.4 hPa WSW 4.8 km/h 12.9 km/h 92 % 0.0 mm
09:02 6.9 °C 5.7 °C 1014.4 hPa SW 4.8 km/h 8.0 km/h 92 % 0.0 mm
09:12 7.1 °C 5.9 °C 1014.4 hPa SW 4.8 km/h 9.7 km/h 92 % 0.0 mm
09:17 7.1 °C 5.9 °C 1014.4 hPa WSW 6.4 km/h 9.7 km/h 92 % 0.0 mm
09:22 7.2 °C 6.0 °C 1014.4 hPa West 6.4 km/h 9.7 km/h 92 % 0.0 mm
09:32 7.2 °C 5.8 °C 1014.4 hPa WSW 4.8 km/h 11.3 km/h 91 % 0.0 mm
09:37 7.4 °C 6.2 °C 1014.4 hPa South 3.2 km/h 11.3 km/h 92 % 0.0 mm
09:42 7.8 °C 6.6 °C 1014.4 hPa SW 8.0 km/h 11.3 km/h 92 % 0.0 mm
09:47 8.0 °C 6.3 °C 1014.4 hPa WSW 11.3 km/h 11.3 km/h 89 % 0.0 mm
09:52 8.0 °C 6.3 °C 1014.4 hPa West 6.4 km/h 17.7 km/h 89 % 0.0 mm
09:57 8.2 °C 6.5 °C 1014.4 hPa SW 11.3 km/h 17.7 km/h 89 % 0.0 mm
10:02 8.2 °C 6.2 °C 1014.4 hPa SW 9.7 km/h 16.1 km/h 87 % 0.0 mm
10:12 8.3 °C 6.6 °C 1014.4 hPa South 6.4 km/h 22.5 km/h 89 % 0.0 mm
10:22 8.6 °C 6.7 °C 1014.4 hPa SW 6.4 km/h 17.7 km/h 88 % 0.0 mm
10:27 8.6 °C 6.6 °C 1014.4 hPa WSW 8.0 km/h 17.7 km/h 87 % 0.0 mm
10:32 8.6 °C 6.7 °C 1014.4 hPa SW 6.4 km/h 17.7 km/h 88 % 0.0 mm
10:37 8.6 °C 6.7 °C 1014.4 hPa SW 8.0 km/h 14.5 km/h 88 % 0.0 mm
10:42 8.6 °C 6.4 °C 1014.4 hPa SW 6.4 km/h 14.5 km/h 86 % 0.0 mm
10:47 8.7 °C 6.7 °C 1014.8 hPa WSW 3.2 km/h 22.5 km/h 87 % 0.0 mm
10:52 8.7 °C 6.7 °C 1014.8 hPa SW 12.9 km/h 22.5 km/h 87 % 0.0 mm
10:57 8.6 °C 6.6 °C 1014.8 hPa SSW 9.7 km/h 24.1 km/h 87 % 0.3 mm
11:02 8.6 °C 6.6 °C 1014.8 hPa West 4.8 km/h 24.1 km/h 87 % 0.3 mm
11:12 8.7 °C 6.5 °C 1014.8 hPa SSW 8.0 km/h 24.1 km/h 86 % 0.3 mm
11:17 8.8 °C 6.8 °C 1014.8 hPa ESE 8.0 km/h 17.7 km/h 87 % 0.3 mm
11:22 9.0 °C 6.8 °C 1014.8 hPa SW 12.9 km/h 17.7 km/h 86 % 0.3 mm
11:27 9.2 °C 7.0 °C 1014.8 hPa South 1.6 km/h 20.9 km/h 86 % 0.3 mm
11:32 9.4 °C 7.0 °C 1014.8 hPa South 8.0 km/h 20.9 km/h 85 % 0.3 mm
11:47 9.8 °C 6.9 °C 1014.8 hPa WSW 12.9 km/h 22.5 km/h 82 % 0.3 mm
11:52 9.8 °C 6.9 °C 1014.8 hPa SW 9.7 km/h 22.5 km/h 82 % 0.3 mm
11:57 9.9 °C 7.1 °C 1014.8 hPa SW 9.7 km/h 20.9 km/h 83 % 0.0 mm
12:02 10.3 °C 7.4 °C 1014.4 hPa SSW 6.4 km/h 22.5 km/h 82 % 0.0 mm
12:12 10.5 °C 7.4 °C 1014.4 hPa SW 16.1 km/h 22.5 km/h 81 % 0.0 mm
12:17 10.4 °C 7.3 °C 1014.4 hPa SW 14.5 km/h 20.9 km/h 81 % 0.0 mm
12:22 10.3 °C 7.0 °C 1014.4 hPa SW 16.1 km/h 22.5 km/h 80 % 0.0 mm
12:27 10.3 °C 7.2 °C 1014.4 hPa SW 9.7 km/h 22.5 km/h 81 % 0.0 mm
12:32 10.4 °C 7.5 °C 1014.4 hPa SW 12.9 km/h 25.7 km/h 82 % 0.0 mm
12:37 10.7 °C 7.6 °C 1014.4 hPa WSW 9.7 km/h 25.7 km/h 81 % 0.0 mm
12:42 11.2 °C 8.2 °C 1014.4 hPa SW 8.0 km/h 17.7 km/h 82 % 0.0 mm
12:47 11.6 °C 7.9 °C 1014.4 hPa SW 14.5 km/h 17.7 km/h 78 % 0.0 mm
12:57 11.8 °C 7.7 °C 1014.4 hPa SW 11.3 km/h 17.7 km/h 76 % 0.0 mm
13:02 11.6 °C 7.7 °C 1014.1 hPa SW 8.0 km/h 20.9 km/h 77 % 0.0 mm
13:12 11.4 °C 7.3 °C 1014.1 hPa WSW 12.9 km/h 20.9 km/h 76 % 0.0 mm
13:17 11.9 °C 8.2 °C 1013.8 hPa SSW 11.3 km/h 20.9 km/h 78 % 0.0 mm
13:22 11.6 °C 7.9 °C 1013.8 hPa SW 17.7 km/h 20.9 km/h 78 % 0.0 mm
13:27 11.7 °C 7.8 °C 1014.1 hPa WSW 12.9 km/h 20.9 km/h 77 % 0.0 mm
13:32 11.8 °C 7.9 °C 1013.8 hPa SW 8.0 km/h 20.9 km/h 77 % 0.0 mm
13:37 11.9 °C 7.8 °C 1013.8 hPa West 6.4 km/h 19.3 km/h 76 % 0.0 mm
13:42 12.6 °C 7.9 °C 1013.4 hPa SW 16.1 km/h 19.3 km/h 73 % 0.0 mm
13:47 12.3 °C 7.8 °C 1013.8 hPa SW 14.5 km/h 19.3 km/h 74 % 0.0 mm
13:52 12.3 °C 7.0 °C 1013.4 hPa South 11.3 km/h 20.9 km/h 70 % 0.0 mm
13:57 12.0 °C 7.5 °C 1013.4 hPa SSW 12.9 km/h 22.5 km/h 74 % 0.0 mm
14:02 12.4 °C 7.9 °C 1013.4 hPa SSE 6.4 km/h 22.5 km/h 74 % 0.0 mm
14:07 12.4 °C 7.5 °C 1013.4 hPa SW 16.1 km/h 22.5 km/h 72 % 0.0 mm
14:12 12.1 °C 7.8 °C 1013.4 hPa SW 16.1 km/h 22.5 km/h 75 % 0.0 mm
14:17 11.8 °C 7.1 °C 1013.4 hPa West 12.9 km/h 20.9 km/h 73 % 0.0 mm
14:22 12.2 °C 7.9 °C 1013.4 hPa West 11.3 km/h 20.9 km/h 75 % 0.0 mm
14:27 11.8 °C 6.5 °C 1013.1 hPa SW 16.1 km/h 20.9 km/h 70 % 0.0 mm
14:32 11.8 °C 7.7 °C 1013.4 hPa WSW 9.7 km/h 24.1 km/h 76 % 0.0 mm
14:37 12.5 °C 8.0 °C 1013.1 hPa WSW 12.9 km/h 24.1 km/h 74 % 0.0 mm
14:42 13.0 °C 8.7 °C 1013.1 hPa West 6.4 km/h 24.1 km/h 75 % 0.0 mm
14:47 12.8 °C 7.3 °C 1013.1 hPa SW 11.3 km/h 22.5 km/h 69 % 0.0 mm
14:52 12.7 °C 7.8 °C 1013.1 hPa SW 9.7 km/h 20.9 km/h 72 % 0.0 mm
14:57 12.8 °C 7.9 °C 1013.1 hPa SW 14.5 km/h 22.5 km/h 72 % 0.0 mm
15:02 13.2 °C 8.1 °C 1012.8 hPa SSW 12.9 km/h 22.5 km/h 71 % 0.0 mm
15:07 13.0 °C 7.7 °C 1012.8 hPa SW 11.3 km/h 20.9 km/h 70 % 0.0 mm
15:17 12.5 °C 7.2 °C 1012.8 hPa SW 8.0 km/h 24.1 km/h 70 % 0.0 mm
15:22 12.2 °C 6.9 °C 1012.8 hPa WSW 9.7 km/h 24.1 km/h 70 % 0.0 mm
15:27 12.3 °C 7.4 °C 1012.8 hPa SW 12.9 km/h 19.3 km/h 72 % 0.0 mm
15:32 12.6 °C 6.8 °C 1012.4 hPa SSW 14.5 km/h 17.7 km/h 68 % 0.0 mm
15:37 12.7 °C 6.5 °C 1012.8 hPa SE 8.0 km/h 17.7 km/h 66 % 0.0 mm
15:42 12.5 °C 6.3 °C 1012.4 hPa ESE 4.8 km/h 16.1 km/h 66 % 0.0 mm
15:47 12.2 °C 6.5 °C 1012.8 hPa SW 27.4 km/h 27.4 km/h 68 % 0.0 mm
15:52 10.8 °C 6.9 °C 1013.1 hPa SSE 20.9 km/h 27.4 km/h 77 % 0.0 mm
15:57 10.4 °C 7.3 °C 1013.1 hPa SW 14.5 km/h 32.2 km/h 81 % 0.0 mm
16:02 10.9 °C 7.6 °C 1013.1 hPa SW 6.4 km/h 32.2 km/h 80 % 0.0 mm
16:07 11.3 °C 7.8 °C 1013.1 hPa SSW 8.0 km/h 30.6 km/h 79 % 0.0 mm
16:12 11.6 °C 7.9 °C 1013.1 hPa SW 12.9 km/h 30.6 km/h 78 % 0.0 mm
16:17 11.8 °C 7.9 °C 1012.8 hPa SW 16.1 km/h 22.5 km/h 77 % 0.0 mm
16:22 12.1 °C 8.4 °C 1013.1 hPa SW 12.9 km/h 19.3 km/h 78 % 0.0 mm
16:27 12.1 °C 8.4 °C 1013.1 hPa West 12.9 km/h 19.3 km/h 78 % 0.0 mm
16:32 11.7 °C 8.0 °C 1013.1 hPa WSW 6.4 km/h 19.3 km/h 78 % 0.0 mm
16:37 11.5 °C 7.8 °C 1013.1 hPa SW 12.9 km/h 19.3 km/h 78 % 0.0 mm
16:42 11.6 °C 7.3 °C 1012.8 hPa SW 16.1 km/h 19.3 km/h 75 % 0.0 mm
16:47 12.0 °C 7.5 °C 1012.8 hPa WSW 16.1 km/h 22.5 km/h 74 % 0.0 mm
16:52 12.1 °C 7.6 °C 1012.8 hPa South 11.3 km/h 22.5 km/h 74 % 0.0 mm
16:57 12.0 °C 7.1 °C 1012.8 hPa WSW 6.4 km/h 22.5 km/h 72 % 0.0 mm
17:02 11.8 °C 6.9 °C 1012.8 hPa SW 11.3 km/h 20.9 km/h 72 % 0.0 mm
17:12 11.8 °C 6.5 °C 1012.8 hPa WSW 8.0 km/h 22.5 km/h 70 % 0.0 mm
17:17 11.8 °C 6.7 °C 1012.8 hPa SW 8.0 km/h 22.5 km/h 71 % 0.0 mm
17:22 11.6 °C 7.3 °C 1012.8 hPa NNW 8.0 km/h 22.5 km/h 75 % 0.0 mm
17:32 11.6 °C 7.1 °C 1012.8 hPa South 11.3 km/h 20.9 km/h 74 % 0.0 mm
17:37 11.7 °C 7.0 °C 1012.4 hPa WSW 8.0 km/h 20.9 km/h 73 % 0.0 mm
17:42 11.7 °C 7.2 °C 1012.4 hPa WSW 4.8 km/h 20.9 km/h 74 % 0.0 mm
17:47 11.8 °C 7.3 °C 1012.4 hPa SSE 1.6 km/h 19.3 km/h 74 % 0.0 mm
17:52 11.9 °C 7.2 °C 1012.4 hPa SW 3.2 km/h 12.9 km/h 73 % 0.0 mm
17:57 11.9 °C 7.2 °C 1012.4 hPa SW 6.4 km/h 12.9 km/h 73 % 0.0 mm
18:02 11.9 °C 7.2 °C 1012.1 hPa SW 8.0 km/h 9.7 km/h 73 % 0.0 mm
18:12 10.9 °C 6.8 °C 1012.4 hPa SW 11.3 km/h 14.5 km/h 76 % 0.0 mm
18:17 10.9 °C 7.2 °C 1012.4 hPa SW 11.3 km/h 16.1 km/h 78 % 0.0 mm
18:22 11.4 °C 7.3 °C 1012.4 hPa WSW 6.4 km/h 16.1 km/h 76 % 0.0 mm
18:32 11.2 °C 7.5 °C 1012.1 hPa SW 8.0 km/h 20.9 km/h 78 % 0.0 mm
18:37 11.1 °C 7.2 °C 1012.1 hPa SSW 8.0 km/h 20.9 km/h 77 % 0.0 mm
18:42 11.1 °C 7.6 °C 1012.1 hPa SW 4.8 km/h 20.9 km/h 79 % 0.0 mm
18:47 11.0 °C 7.5 °C 1011.7 hPa SW 9.7 km/h 20.9 km/h 79 % 0.0 mm
18:57 10.8 °C 7.7 °C 1011.7 hPa West 3.2 km/h 14.5 km/h 81 % 0.0 mm
19:02 10.5 °C 7.2 °C 1011.7 hPa SW 3.2 km/h 14.5 km/h 80 % 0.0 mm
19:12 10.3 °C 6.8 °C 1011.7 hPa SW 6.4 km/h 11.3 km/h 79 % 0.0 mm
19:17 10.2 °C 6.7 °C 1011.7 hPa SW 8.0 km/h 12.9 km/h 79 % 0.0 mm
19:22 10.1 °C 6.6 °C 1011.7 hPa WSW 9.7 km/h 12.9 km/h 79 % 0.0 mm
19:27 10.1 °C 6.6 °C 1011.7 hPa SW 6.4 km/h 12.9 km/h 79 % 0.0 mm
19:32 9.9 °C 6.6 °C 1011.7 hPa SSW 1.6 km/h 12.9 km/h 80 % 0.0 mm
19:37 9.6 °C 6.5 °C 1011.7 hPa SW 1.6 km/h 16.1 km/h 81 % 0.0 mm
19:42 9.4 °C 6.5 °C 1011.7 hPa SSW 4.8 km/h 16.1 km/h 82 % 0.0 mm
19:47 9.6 °C 7.0 °C 1011.7 hPa WSW 3.2 km/h 16.1 km/h 84 % 0.0 mm
19:52 9.3 °C 6.7 °C 1011.4 hPa SW 6.4 km/h 11.3 km/h 84 % 0.0 mm
20:02 8.8 °C 6.2 °C 1011.7 hPa WSW 3.2 km/h 11.3 km/h 84 % 0.0 mm
20:12 8.2 °C 6.0 °C 1011.4 hPa SW 1.6 km/h 9.7 km/h 86 % 0.0 mm
20:17 8.0 °C 6.0 °C 1011.4 hPa Calm   9.7 km/h 87 % 0.0 mm
20:22 7.8 °C 5.9 °C 1011.4 hPa SSW 1.6 km/h 8.0 km/h 88 % 0.0 mm
20:27 7.6 °C 5.9 °C 1011.4 hPa SW 3.2 km/h 4.8 km/h 89 % 0.0 mm
20:32 7.7 °C 6.0 °C 1011.4 hPa SW 1.6 km/h 3.2 km/h 89 % 0.0 mm
20:37 7.6 °C 5.9 °C 1011.4 hPa Calm   4.8 km/h 89 % 0.0 mm
20:42 7.5 °C 5.8 °C 1011.4 hPa SW 3.2 km/h 4.8 km/h 89 % 0.0 mm
20:47 7.4 °C 5.9 °C 1011.4 hPa ESE 1.6 km/h 4.8 km/h 90 % 0.0 mm
20:52 7.4 °C 5.7 °C 1011.4 hPa WSW 1.6 km/h 3.2 km/h 89 % 0.0 mm
20:57 7.4 °C 5.7 °C 1011.4 hPa Calm   4.8 km/h 89 % 0.0 mm
21:02 7.3 °C 5.6 °C 1011.1 hPa WSW 3.2 km/h 4.8 km/h 89 % 0.0 mm
21:07 7.4 °C 5.7 °C 1011.4 hPa WSW 3.2 km/h 4.8 km/h 89 % 0.0 mm
21:12 7.5 °C 5.8 °C 1011.1 hPa WSW 1.6 km/h 6.4 km/h 89 % 0.0 mm
21:17 7.5 °C 5.6 °C 1011.4 hPa SSW 1.6 km/h 6.4 km/h 88 % 0.0 mm
21:22 7.4 °C 5.7 °C 1011.4 hPa Calm   6.4 km/h 89 % 0.0 mm
21:27 7.3 °C 5.6 °C 1011.4 hPa SW 1.6 km/h 6.4 km/h 89 % 0.0 mm
21:32 7.5 °C 5.8 °C 1011.1 hPa South 4.8 km/h 6.4 km/h 89 % 0.0 mm
21:37 7.6 °C 5.7 °C 1011.1 hPa WSW 4.8 km/h 9.7 km/h 88 % 0.0 mm
21:42 7.7 °C 5.8 °C 1011.1 hPa SW 8.0 km/h 9.7 km/h 88 % 0.0 mm
21:47 7.6 °C 5.6 °C 1011.1 hPa SW 6.4 km/h 9.7 km/h 87 % 0.0 mm
21:52 7.5 °C 5.6 °C 1011.1 hPa SW 3.2 km/h 8.0 km/h 88 % 0.0 mm
21:57 7.3 °C 5.4 °C 1011.1 hPa Calm   8.0 km/h 88 % 0.0 mm
22:02 7.2 °C 5.3 °C 1011.1 hPa WSW 4.8 km/h 8.0 km/h 88 % 0.0 mm
22:12 7.3 °C 5.4 °C 1011.1 hPa SW 6.4 km/h 8.0 km/h 88 % 0.0 mm
22:17 7.2 °C 5.3 °C 1011.1 hPa WSW 3.2 km/h 9.7 km/h 88 % 0.0 mm
22:22 7.2 °C 5.3 °C 1011.1 hPa SW 1.6 km/h 9.7 km/h 88 % 0.0 mm
22:27 7.1 °C 5.2 °C 1011.1 hPa SSW 1.6 km/h 9.7 km/h 88 % 0.0 mm
22:32 7.0 °C 5.1 °C 1011.1 hPa WSW 4.8 km/h 6.4 km/h 88 % 0.0 mm
22:37 6.9 °C 5.2 °C 1010.7 hPa WSW 3.2 km/h 6.4 km/h 89 % 0.0 mm
22:42 6.9 °C 5.2 °C 1010.7 hPa SW 3.2 km/h 6.4 km/h 89 % 0.0 mm
22:47 6.9 °C 5.2 °C 1010.7 hPa SW 4.8 km/h 6.4 km/h 89 % 0.0 mm
22:52 6.8 °C 5.1 °C 1010.7 hPa WSW 4.8 km/h 6.4 km/h 89 % 0.0 mm
22:57 6.8 °C 5.1 °C 1010.7 hPa SW 4.8 km/h 8.0 km/h 89 % 0.0 mm
23:02 6.7 °C 5.0 °C 1010.7 hPa SW 1.6 km/h 8.0 km/h 89 % 0.0 mm
23:12 6.7 °C 5.0 °C 1010.4 hPa WSW 3.2 km/h 6.4 km/h 89 % 0.0 mm
23:17 6.7 °C 5.2 °C 1010.4 hPa SW 4.8 km/h 8.0 km/h 90 % 0.0 mm
23:22 6.6 °C 5.1 °C 1010.0 hPa WSW 4.8 km/h 8.0 km/h 90 % 0.0 mm
23:27 6.6 °C 5.1 °C 1010.0 hPa SW 6.4 km/h 8.0 km/h 90 % 0.0 mm
23:32 6.7 °C 5.2 °C 1010.0 hPa SW 3.2 km/h 6.4 km/h 90 % 0.0 mm
23:37 6.9 °C 5.2 °C 1010.0 hPa SSE 6.4 km/h 8.0 km/h 89 % 0.0 mm
23:42 7.0 °C 5.3 °C 1009.7 hPa SW 4.8 km/h 9.7 km/h 89 % 0.0 mm
23:47 7.0 °C 5.3 °C 1009.7 hPa WSW 1.6 km/h 9.7 km/h 89 % 0.0 mm
23:52 6.9 °C 5.2 °C 1009.7 hPa SW 1.6 km/h 9.7 km/h 89 % 0.0 mm
23:57 7.0 °C 5.3 °C 1009.7 hPa SW 8.0 km/h 9.7 km/h 89 % 0.0 mm
Meteo18
Compliments of Weather Underground - 4 mb

Script developed by  Jim McMurry - jmcmurry@mwt.net Adapted for the template by  Wim van der Kuil - Leuven-Template.eu

You find our weather info also at:

European Weather Network

Weather Underground

Equipment we use:

Weather-station
Davis Vue

Weather-program
Meteohub

Weather-server
Raspberry PI 2 B+

Provider
1 and 1

Davis Vue

Meteohub

Raspberry PI 2 B+

1 and 1